Time;durP1;ratioP1;P1;durP2;ratioP2;P2;SDS_P1;SDS_P2;PMS_P1;PMS_P2;Temp;Humidity;BMP_temperature;BMP_pressure;BME280_temperature;BME280_humidity;BME280_pressure;Samples;Min_cycle;Max_cycle;Signal;HPM_P1;HPM_P2
2023/01/17 00:01:42;;;;;;;3.10;0.70;;;;;;;2.22;100.00;98253.69;5048124;28;20020;-67
2023/01/17 00:09:53;;;;;;;2.90;0.80;;;;;;;2.09;100.00;98258.50;5048089;28;20067;-66
2023/01/17 00:12:23;;;;;;;2.95;0.52;;;;;;;2.08;100.00;98261.88;5048403;28;20100;-65
2023/01/17 00:14:50;;;;;;;2.42;0.40;;;;;;;2.06;100.00;98268.63;5047891;28;20056;-66
2023/01/17 00:17:15;;;;;;;2.17;0.70;;;;;;;2.01;100.00;98267.66;5048044;28;20025;-66
2023/01/17 01:34:18;;;;;;;3.43;0.70;;;;;;;1.25;100.00;98406.84;5046318;28;20542;-64
2023/01/17 01:36:43;;;;;;;1.30;0.57;;;;;;;1.20;100.00;98399.06;5046315;28;20021;-64
2023/01/17 01:39:08;;;;;;;0.70;0.60;;;;;;;1.18;100.00;98408.34;5046911;28;20461;-65
2023/01/17 01:41:34;;;;;;;0.73;0.70;;;;;;;1.19;100.00;98416.06;5049308;28;20063;-64
2023/01/17 01:43:59;;;;;;;1.13;1.00;;;;;;;1.19;100.00;98410.06;5046357;28;20035;-64
2023/01/17 01:46:29;;;;;;;0.70;0.50;;;;;;;1.21;100.00;98425.47;5046615;28;20040;-65
2023/01/17 01:49:04;;;;;;;2.03;0.60;;;;;;;1.19;100.00;98435.59;5046845;28;20033;-64
2023/01/17 01:51:38;;;;;;;2.00;0.60;;;;;;;1.17;100.00;98438.09;5047643;28;20057;-64
2023/01/17 01:54:10;;;;;;;1.40;0.77;;;;;;;1.16;100.00;98450.81;5046626;28;20182;-65
2023/01/17 01:56:37;;;;;;;1.13;0.80;;;;;;;1.15;100.00;98439.72;5046785;28;20029;-65
2023/01/17 01:59:07;;;;;;;1.60;0.97;;;;;;;1.14;100.00;98448.22;5046072;28;20056;-65
2023/01/17 02:01:33;;;;;;;1.60;1.10;;;;;;;1.12;100.00;98447.31;5047928;28;20098;-65
2023/01/17 02:03:58;;;;;;;1.03;1.03;;;;;;;1.13;100.00;98453.28;5056947;28;21256;-65
2023/01/17 02:06:29;;;;;;;2.37;1.50;;;;;;;1.14;100.00;98457.56;5047510;28;20447;-65
2023/01/17 02:08:57;;;;;;;1.15;1.15;;;;;;;1.13;100.00;98453.28;5046867;28;20036;-64
2023/01/17 02:11:23;;;;;;;1.63;1.23;;;;;;;1.11;100.00;98458.34;5046785;28;20029;-65
2023/01/17 02:13:48;;;;;;;1.37;1.27;;;;;;;1.08;100.00;98453.13;5047553;28;20469;-65
2023/01/17 02:16:27;;;;;;;1.13;1.13;;;;;;;1.02;100.00;98458.91;5047338;28;20388;-64
2023/01/17 02:19:18;;;;;;;1.70;1.60;;;;;;;1.00;100.00;98460.53;5046895;28;20021;-65
2023/01/17 02:22:00;;;;;;;1.48;1.35;;;;;;;0.97;100.00;98468.09;5049016;28;20028;-65
2023/01/17 02:24:56;;;;;;;2.10;1.40;;;;;;;0.94;100.00;98476.50;5046908;28;20107;-65
2023/01/17 02:28:05;;;;;;;5.13;2.37;;;;;;;0.94;100.00;98504.56;5046679;28;20023;-65
2023/01/17 02:30:42;;;;;;;2.87;1.10;;;;;;;0.85;100.00;98476.19;5045995;28;20302;-65
2023/01/17 02:33:30;;;;;;;2.57;1.30;;;;;;;0.82;100.00;98482.06;5046831;28;20064;-65
2023/01/17 02:36:27;;;;;;;2.87;1.47;;;;;;;0.79;100.00;98487.06;5048079;28;20029;-65
2023/01/17 02:39:08;;;;;;;2.57;1.03;;;;;;;0.78;100.00;98489.56;5046245;28;20029;-65
2023/01/17 02:41:40;;;;;;;2.57;1.13;;;;;;;0.74;100.00;98495.38;5047650;28;20033;-65
2023/01/17 02:44:08;;;;;;;1.43;0.80;;;;;;;0.73;100.00;98480.88;5048646;28;20496;-65
2023/01/17 02:46:46;;;;;;;1.47;0.67;;;;;;;0.68;100.00;98484.16;5046710;28;20438;-65
2023/01/17 02:49:13;;;;;;;1.07;0.70;;;;;;;0.59;100.00;98469.41;5046770;28;20029;-65
2023/01/17 02:51:55;;;;;;;1.63;0.80;;;;;;;0.55;100.00;98469.25;5046990;28;20345;-65
2023/01/17 02:54:38;;;;;;;3.43;0.53;;;;;;;0.53;100.00;98483.63;5046999;28;20040;-64
2023/01/17 02:57:23;;;;;;;0.60;0.40;;;;;;;0.54;100.00;98488.75;5046470;28;20025;-65
2023/01/17 03:00:03;;;;;;;3.03;0.63;;;;;;;0.54;100.00;98481.13;5047111;28;20060;-65
2023/01/17 03:02:57;;;;;;;2.10;0.40;;;;;;;0.56;100.00;98478.63;5048891;28;20205;-65
2023/01/17 03:05:43;;;;;;;1.70;0.43;;;;;;;0.54;100.00;98485.38;5055074;28;20064;-65
2023/01/17 03:08:11;;;;;;;2.20;0.30;;;;;;;0.54;100.00;98490.47;5049943;28;20094;-65
2023/01/17 03:10:38;;;;;;;0.83;0.30;;;;;;;0.52;100.00;98495.50;5050015;28;20021;-64
2023/01/17 03:13:04;;;;;;;3.60;0.43;;;;;;;0.52;100.00;98498.03;5050292;28;20035;-65
2023/01/17 03:15:30;;;;;;;1.50;0.30;;;;;;;0.49;100.00;98489.44;5049029;28;20412;-65
2023/01/17 03:17:59;;;;;;;0.77;0.20;;;;;;;0.45;100.00;98496.97;5049715;28;20041;-65
2023/01/17 03:20:25;;;;;;;1.47;0.30;;;;;;;0.42;100.00;98507.06;5056049;28;20031;-64
2023/01/17 03:22:50;;;;;;;4.23;1.27;;;;;;;0.38;100.00;98500.09;5058389;28;20111;-64
2023/01/17 03:25:16;;;;;;;2.07;0.40;;;;;;;0.31;100.00;98508.34;5048555;28;20424;-65
2023/01/17 03:27:41;;;;;;;1.93;0.60;;;;;;;0.28;100.00;98513.34;5050309;28;20429;-65
2023/01/17 03:30:07;;;;;;;0.83;0.30;;;;;;;0.20;100.00;98510.50;5049693;28;20063;-64
2023/01/17 03:32:32;;;;;;;1.50;0.23;;;;;;;0.14;100.00;98515.38;5049356;28;20035;-65
2023/01/17 03:34:58;;;;;;;1.27;0.33;;;;;;;0.04;100.00;98519.25;5048758;28;20074;-64
2023/01/17 03:37:23;;;;;;;1.43;0.73;;;;;;;-0.05;100.00;98513.03;5049452;28;20029;-65
2023/01/17 03:39:48;;;;;;;1.77;0.40;;;;;;;-0.12;100.00;98511.06;5049997;28;20380;-65
2023/01/17 03:42:13;;;;;;;1.33;0.40;;;;;;;-0.19;100.00;98509.97;5048440;28;20671;-65
2023/01/17 03:44:39;;;;;;;1.93;0.30;;;;;;;-0.26;100.00;98513.97;5055119;28;20024;-64
2023/01/17 03:47:04;;;;;;;0.87;0.40;;;;;;;-0.28;100.00;98512.16;5049780;28;20061;-65
2023/01/17 03:49:30;;;;;;;1.37;0.40;;;;;;;-0.32;100.00;98511.16;5049749;28;20035;-65
2023/01/17 03:51:55;;;;;;;3.40;0.70;;;;;;;-0.34;100.00;98505.13;5048037;28;20128;-65
2023/01/17 03:54:20;;;;;;;2.67;0.70;;;;;;;-0.35;100.00;98521.22;5054316;28;20062;-65
2023/01/17 03:56:46;;;;;;;4.73;0.80;;;;;;;-0.35;100.00;98521.22;5049066;28;20068;-65
2023/01/17 03:59:12;;;;;;;3.77;0.53;;;;;;;-0.37;100.00;98517.75;5051077;28;20460;-64
2023/01/17 04:01:37;;;;;;;1.37;0.80;;;;;;;-0.39;100.00;98511.72;5048094;28;20107;-65
2023/01/17 04:04:02;;;;;;;1.33;0.97;;;;;;;-0.41;100.00;98510.81;5049773;28;20072;-64
2023/01/17 04:06:28;;;;;;;3.23;1.30;;;;;;;-0.41;100.00;98515.88;5049795;28;20031;-64
2023/01/17 04:08:53;;;;;;;2.77;1.40;;;;;;;-0.42;100.00;98509.06;5049678;28;20375;-64
2023/01/17 04:11:19;;;;;;;4.87;2.13;;;;;;;-0.43;100.00;98522.63;5048557;28;20509;-64
2023/01/17 04:13:44;;;;;;;3.23;1.70;;;;;;;-0.43;100.00;98528.56;5048805;28;20032;-64
2023/01/17 04:16:14;;;;;;;2.70;1.80;;;;;;;-0.42;100.00;98519.25;5049547;28;20437;-64
2023/01/17 04:18:40;;;;;;;5.20;1.90;;;;;;;-0.42;100.00;98526.91;5049679;28;20258;-64
2023/01/17 04:21:06;;;;;;;3.87;2.13;;;;;;;-0.43;100.00;98518.38;5053866;28;20013;-64
2023/01/17 04:23:31;;;;;;;3.30;2.03;;;;;;;-0.45;100.00;98514.91;5049167;28;20017;-64
2023/01/17 04:25:57;;;;;;;3.43;1.67;;;;;;;-0.47;100.00;98513.13;5048790;28;20078;-67
2023/01/17 04:28:22;;;;;;;2.20;1.40;;;;;;;-0.46;100.00;98514.84;5047729;28;20564;-64
2023/01/17 04:30:47;;;;;;;3.03;1.60;;;;;;;-0.47;100.00;98513.13;5049631;28;20031;-64
2023/01/17 04:33:12;;;;;;;5.83;2.00;;;;;;;-0.48;100.00;98524.97;5049243;28;20263;-65
2023/01/17 04:35:38;;;;;;;4.90;2.73;;;;;;;-0.50;100.00;98522.38;5047721;28;20470;-65
2023/01/17 04:38:03;;;;;;;5.03;1.53;;;;;;;-0.51;100.00;98520.66;5047569;28;20032;-63
2023/01/17 04:40:28;;;;;;;7.03;2.03;;;;;;;-0.50;100.00;98524.91;5048766;28;20025;-64
2023/01/17 04:42:56;;;;;;;4.90;2.53;;;;;;;-0.49;100.00;98529.19;5048520;28;20036;-63
2023/01/17 04:45:22;;;;;;;5.90;1.60;;;;;;;-0.50;100.00;98524.91;5046581;28;20160;-64
2023/01/17 04:47:47;;;;;;;3.87;1.57;;;;;;;-0.50;100.00;98522.38;5047460;28;20656;-64
2023/01/17 04:50:12;;;;;;;3.27;1.43;;;;;;;-0.50;100.00;98522.38;5047256;28;20571;-64
2023/01/17 04:52:37;;;;;;;5.20;1.77;;;;;;;-0.52;100.00;98534.16;5047549;28;20031;-65
2023/01/17 04:55:04;;;;;;;1.70;1.53;;;;;;;-0.57;100.00;98525.47;5045965;28;20382;-64
2023/01/17 04:57:29;;;;;;;3.90;1.17;;;;;;;-0.58;100.00;98539.03;5047033;28;20424;-64
2023/01/17 04:59:54;;;;;;;2.57;1.73;;;;;;;-0.59;100.00;98537.25;5055665;28;20486;-64
2023/01/17 05:02:20;;;;;;;3.33;1.70;;;;;;;-0.61;100.00;98528.69;5047252;28;20060;-64
2023/01/17 05:04:45;;;;;;;5.27;2.73;;;;;;;-0.60;100.00;98530.44;5047527;28;20029;-64
2023/01/17 05:07:10;;;;;;;6.23;3.03;;;;;;;-0.61;100.00;98533.78;5048678;28;20025;-64
2023/01/17 05:09:36;;;;;;;7.23;2.90;;;;;;;-0.62;100.00;98537.16;5047939;28;20032;-64
2023/01/17 05:12:01;;;;;;;5.47;3.43;;;;;;;-0.61;100.00;98531.25;5049919;28;20040;-64
2023/01/17 05:14:26;;;;;;;5.73;3.90;;;;;;;-0.61;100.00;98539.75;5050217;28;20025;-64
2023/01/17 05:16:53;;;;;;;8.37;5.10;;;;;;;-0.62;100.00;98547.31;5047718;28;20036;-64
2023/01/17 05:19:18;;;;;;;9.50;4.73;;;;;;;-0.61;100.00;98541.41;5050774;28;20563;-64
2023/01/17 05:21:43;;;;;;;9.17;5.37;;;;;;;-0.63;100.00;98535.44;5055296;28;20290;-64
2023/01/17 05:24:09;;;;;;;8.47;5.97;;;;;;;-0.63;100.00;98535.44;5046104;28;20029;-64
2023/01/17 05:26:34;;;;;;;7.97;6.30;;;;;;;-0.65;100.00;98544.66;5047716;28;20021;-64
2023/01/17 05:28:59;;;;;;;10.67;7.03;;;;;;;-0.66;100.00;98535.28;5046350;28;20025;-64
2023/01/17 05:31:24;;;;;;;7.43;5.77;;;;;;;-0.68;100.00;98535.22;5049195;28;20036;-64
2023/01/17 05:33:50;;;;;;;11.57;7.33;;;;;;;-0.72;100.00;98538.47;5054475;28;20037;-64
2023/01/17 05:36:15;;;;;;;11.20;7.17;;;;;;;-0.74;100.00;98542.63;5046590;28;20465;-64
2023/01/17 05:38:40;;;;;;;10.73;7.37;;;;;;;-0.74;100.00;98542.63;5047567;28;20021;-64
2023/01/17 05:41:06;;;;;;;10.40;6.17;;;;;;;-0.79;100.00;98544.97;5054799;28;20128;-64
2023/01/17 05:43:31;;;;;;;11.80;7.53;;;;;;;-0.81;100.00;98546.56;5047291;28;20031;-64
2023/01/17 05:45:56;;;;;;;9.90;7.73;;;;;;;-0.86;100.00;98542.97;5047178;28;20025;-64
2023/01/17 05:48:21;;;;;;;10.00;7.00;;;;;;;-0.86;100.00;98553.16;5054859;28;20056;-64
2023/01/17 05:50:47;;;;;;;12.70;8.60;;;;;;;-0.87;100.00;98551.41;5047268;28;20102;-64
2023/01/17 05:53:14;;;;;;;8.33;7.23;;;;;;;-0.88;100.00;98557.31;5046954;28;20025;-64
2023/01/17 05:55:40;;;;;;;10.27;7.27;;;;;;;-0.89;100.00;98561.53;5046844;28;20618;-64
2023/01/17 05:58:07;;;;;;;9.63;6.77;;;;;;;-0.92;100.00;98558.88;5049811;28;20044;-63
2023/01/17 06:00:33;;;;;;;8.83;6.47;;;;;;;-0.92;100.00;98566.50;5053770;28;20506;-64
2023/01/17 06:02:59;;;;;;;9.60;6.20;;;;;;;-0.95;100.00;98568.03;5046481;28;20025;-64
2023/01/17 06:05:26;;;;;;;8.83;5.83;;;;;;;-0.98;100.00;98564.56;5047082;28;20043;-63
2023/01/17 06:07:52;;;;;;;9.07;6.20;;;;;;;-0.99;100.00;98567.03;5046248;28;20032;-63
2023/01/17 06:10:19;;;;;;;9.90;6.93;;;;;;;-1.01;100.00;98572.03;5052415;28;20032;-63
2023/01/17 06:12:45;;;;;;;10.37;7.27;;;;;;;-1.00;100.00;98570.38;5049970;28;20057;-64
2023/01/17 06:15:12;;;;;;;13.53;7.40;;;;;;;-1.01;100.00;98564.41;5046475;28;20044;-63
2023/01/17 06:17:38;;;;;;;12.80;9.70;;;;;;;-1.02;100.00;98567.78;5044348;28;20032;-63
2023/01/17 06:20:05;;;;;;;11.57;7.80;;;;;;;-1.04;100.00;98569.38;5048223;28;20078;-63
2023/01/17 06:22:30;;;;;;;11.90;8.10;;;;;;;-1.06;100.00;98568.44;5054902;28;20071;-64
2023/01/17 06:24:55;;;;;;;12.87;9.67;;;;;;;-1.05;100.00;98576.94;5051161;28;20352;-64
2023/01/17 06:27:21;;;;;;;14.83;9.47;;;;;;;-1.07;100.00;98574.34;5046678;28;20028;-64
2023/01/17 06:29:46;;;;;;;14.57;9.27;;;;;;;-1.07;100.00;98579.44;5047287;28;20028;-64
2023/01/17 06:32:12;;;;;;;11.83;8.97;;;;;;;-1.09;100.00;98575.94;5046478;28;20052;-63
2023/01/17 06:34:39;;;;;;;11.90;9.30;;;;;;;-1.11;100.00;98573.34;5050212;28;20052;-64
2023/01/17 06:37:04;;;;;;;12.60;9.63;;;;;;;-1.11;100.00;98572.47;5052555;28;20021;-64
2023/01/17 06:39:30;;;;;;;16.90;9.37;;;;;;;-1.12;100.00;98575.81;5055926;28;20066;-64
2023/01/17 06:41:55;;;;;;;12.33;9.50;;;;;;;-1.12;100.00;98578.38;5050819;28;20457;-64
2023/01/17 06:44:20;;;;;;;13.80;9.87;;;;;;;-1.13;100.00;98579.16;5056442;28;20028;-64
2023/01/17 06:46:46;;;;;;;13.53;9.90;;;;;;;-1.13;100.00;98585.13;5049293;28;20436;-64
2023/01/17 06:49:12;;;;;;;13.87;9.40;;;;;;;-1.16;100.00;98584.13;5049273;28;20037;-63
2023/01/17 06:51:38;;;;;;;12.47;9.53;;;;;;;-1.16;100.00;98584.13;5047657;28;20129;-64
2023/01/17 06:54:03;;;;;;;12.50;9.93;;;;;;;-1.18;100.00;98584.06;5048312;28;20028;-64
2023/01/17 06:56:32;;;;;;;12.73;9.20;;;;;;;-1.23;100.00;98583.88;5047487;28;20417;-64
2023/01/17 06:58:58;;;;;;;17.83;9.80;;;;;;;-1.23;100.00;98590.63;5050885;28;20017;-64
2023/01/17 07:01:24;;;;;;;13.00;9.77;;;;;;;-1.25;100.00;98582.94;5046554;28;20032;-63
2023/01/17 07:03:51;;;;;;;14.67;9.63;;;;;;;-1.27;100.00;98581.97;5047707;28;20025;-64
2023/01/17 07:06:16;;;;;;;15.73;10.30;;;;;;;-1.30;100.00;98581.84;5048182;28;20102;-64
2023/01/17 07:08:42;;;;;;;14.77;10.07;;;;;;;-1.32;100.00;98583.47;5048218;28;20021;-64
2023/01/17 07:11:07;;;;;;;12.13;8.67;;;;;;;-1.34;100.00;98591.03;5046949;28;20023;-64
2023/01/17 07:13:34;;;;;;;17.83;8.90;;;;;;;-1.34;100.00;98590.13;5047649;28;20040;-64
2023/01/17 07:16:00;;;;;;;14.70;9.30;;;;;;;-1.36;100.00;98589.19;5048172;28;20068;-64
2023/01/17 07:18:26;;;;;;;13.23;10.20;;;;;;;-1.38;100.00;98588.25;5048710;28;20615;-64
2023/01/17 07:20:52;;;;;;;12.97;8.73;;;;;;;-1.41;100.00;98594.09;5055286;28;20020;-64
2023/01/17 07:23:19;;;;;;;16.10;9.73;;;;;;;-1.41;100.00;98591.56;5052468;28;20480;-64
2023/01/17 07:25:58;;;;;;;12.97;9.57;;;;;;;-1.41;100.00;98598.28;5047113;28;20025;-64
2023/01/17 07:28:25;;;;;;;14.10;10.03;;;;;;;-1.39;100.00;98596.69;5047858;28;20104;-64
2023/01/17 07:30:51;;;;;;;15.40;10.03;;;;;;;-1.40;100.00;98600.06;5048290;28;20033;-64
2023/01/17 07:33:17;;;;;;;14.13;9.97;;;;;;;-1.41;100.00;98603.38;5048424;28;20021;-64
2023/01/17 07:35:43;;;;;;;14.00;9.57;;;;;;;-1.41;100.00;98608.47;5059791;28;20037;-64
2023/01/17 07:38:13;;;;;;;16.47;9.83;;;;;;;-1.40;100.00;98597.50;5050139;28;20094;-64
2023/01/17 07:40:38;;;;;;;11.93;9.87;;;;;;;-1.40;100.00;98600.91;5049469;28;20025;-64
2023/01/17 07:43:12;;;;;;;13.83;10.33;;;;;;;-1.39;100.00;98604.31;5049000;28;20334;-65
2023/01/17 07:45:43;;;;;;;16.63;9.80;;;;;;;-1.40;100.00;98605.13;5048576;28;20469;-65
2023/01/17 07:48:09;;;;;;;16.87;10.00;;;;;;;-1.39;100.00;98601.78;5047015;28;20033;-64
2023/01/17 07:50:35;;;;;;;16.13;11.17;;;;;;;-1.41;100.00;98603.38;5050235;28;20068;-64
2023/01/17 07:53:00;;;;;;;14.60;9.93;;;;;;;-1.41;100.00;98603.38;5049029;28;20059;-64
2023/01/17 07:55:26;;;;;;;13.60;10.37;;;;;;;-1.39;100.00;98611.94;5048497;28;20029;-64
2023/01/17 07:57:51;;;;;;;14.50;9.97;;;;;;;-1.38;100.00;98608.59;5048413;28;20068;-64
2023/01/17 08:00:17;;;;;;;19.23;10.70;;;;;;;-1.36;100.00;98612.06;5048858;28;20541;-63
2023/01/17 08:02:42;;;;;;;18.20;12.07;;;;;;;-1.37;100.00;98615.44;5048728;28;20039;-64
2023/01/17 08:05:07;;;;;;;13.97;10.27;;;;;;;-1.38;100.00;98608.59;5048434;28;20485;-64
2023/01/17 08:07:33;;;;;;;20.93;10.83;;;;;;;-1.38;100.00;98604.38;5049482;28;20461;-64
2023/01/17 08:10:00;;;;;;;12.53;10.67;;;;;;;-1.37;100.00;98610.34;5048136;28;20076;-64
2023/01/17 08:12:25;;;;;;;14.97;11.17;;;;;;;-1.33;100.00;98617.28;5048123;28;20128;-64
2023/01/17 08:14:50;;;;;;;15.60;11.13;;;;;;;-1.33;100.00;98617.28;5047705;28;20071;-64
2023/01/17 08:17:16;;;;;;;17.83;11.80;;;;;;;-1.33;100.00;98608.00;5048195;28;20033;-64
2023/01/17 08:19:42;;;;;;;15.30;12.17;;;;;;;-1.33;100.00;98607.13;5048244;28;20062;-64
2023/01/17 08:22:07;;;;;;;16.83;11.87;;;;;;;-1.30;100.00;98616.56;5061855;28;20037;-64
2023/01/17 08:24:33;;;;;;;19.80;12.83;;;;;;;-1.29;100.00;98611.53;5047651;28;20024;-64
2023/01/17 08:26:59;;;;;;;18.70;12.63;;;;;;;-1.26;100.00;98616.75;5048909;28;20021;-65
2023/01/17 08:29:24;;;;;;;19.43;13.20;;;;;;;-1.21;100.00;98616.97;5046741;28;20033;-64
2023/01/17 08:31:49;;;;;;;18.47;12.97;;;;;;;-1.17;100.00;98623.06;5046693;28;20446;-64
2023/01/17 08:34:15;;;;;;;19.93;15.00;;;;;;;-1.13;100.00;98617.28;5048268;28;20037;-64
2023/01/17 08:36:41;;;;;;;19.93;13.47;;;;;;;-1.11;100.00;98623.31;5048354;28;20055;-65
2023/01/17 08:39:08;;;;;;;23.27;15.03;;;;;;;-1.07;100.00;98626.84;5048147;28;20434;-64
2023/01/17 08:41:33;;;;;;;17.60;12.17;;;;;;;-1.07;100.00;98622.66;5046661;28;20044;-64
2023/01/17 08:43:58;;;;;;;20.83;11.53;;;;;;;-1.10;100.00;98625.91;5048043;28;20238;-64
2023/01/17 08:46:24;;;;;;;16.00;11.27;;;;;;;-1.08;100.00;98631.09;5048118;28;20033;-64
2023/01/17 08:49:01;;;;;;;18.10;10.57;;;;;;;-1.05;100.00;98628.69;5047876;28;20516;-64
2023/01/17 08:51:28;;;;;;;15.57;10.07;;;;;;;-1.00;100.00;98629.75;5047341;28;20057;-64
2023/01/17 08:53:55;;;;;;;18.00;12.23;;;;;;;-0.91;100.00;98630.94;5047494;28;20040;-64
2023/01/17 08:56:22;;;;;;;15.77;11.23;;;;;;;-0.84;100.00;98630.38;5048100;28;20025;-63
2023/01/17 08:58:48;;;;;;;19.53;11.03;;;;;;;-0.75;100.00;98632.44;5045487;28;20409;-64
2023/01/17 09:01:13;;;;;;;12.40;10.87;;;;;;;-0.68;100.00;98631.03;5047757;28;20090;-64
2023/01/17 09:03:39;;;;;;;14.10;10.27;;;;;;;-0.65;100.00;98633.72;5047104;28;20025;-64
2023/01/17 09:06:06;;;;;;;14.67;9.47;;;;;;;-0.63;100.00;98632.13;5047892;28;20028;-64
2023/01/17 09:08:33;;;;;;;16.63;11.10;;;;;;;-0.65;100.00;98633.72;5046362;28;20029;-64
2023/01/17 09:11:05;;;;;;;13.90;10.17;;;;;;;-0.66;100.00;98640.47;5047973;28;20029;-64
2023/01/17 09:13:30;;;;;;;14.90;10.20;;;;;;;-0.71;100.00;98636.00;5046511;28;20052;-64
2023/01/17 09:15:56;;;;;;;11.77;9.50;;;;;;;-0.69;100.00;98644.56;5047162;28;20055;-64
2023/01/17 09:18:22;;;;;;;17.77;10.63;;;;;;;-0.68;100.00;98643.75;5046706;28;20021;-64
2023/01/17 09:20:47;;;;;;;15.63;10.37;;;;;;;-0.68;100.00;98642.09;5054716;28;20027;-64
2023/01/17 09:23:12;;;;;;;15.73;10.33;;;;;;;-0.65;100.00;98652.38;5053254;28;20461;-64
2023/01/17 09:25:43;;;;;;;12.67;9.63;;;;;;;-0.61;100.00;98650.84;5046600;28;20028;-64
2023/01/17 09:28:08;;;;;;;12.43;10.35;;;;;;;-0.55;100.00;98646.00;5046751;28;20488;-64
2023/01/17 09:30:33;;;;;;;13.20;11.60;;;;;;;-0.45;100.00;98646.41;5047368;28;20029;-64
2023/01/17 09:32:59;;;;;;;15.10;10.70;;;;;;;-0.33;100.00;98653.66;5047070;28;20021;-64
2023/01/17 09:35:24;;;;;;;14.07;10.17;;;;;;;-0.22;100.00;98651.56;5045681;28;20192;-64
2023/01/17 09:37:50;;;;;;;13.50;10.87;;;;;;;-0.15;100.00;98654.41;5047209;28;20090;-64
2023/01/17 09:40:23;;;;;;;14.10;11.03;;;;;;;-0.10;100.00;98652.03;5047499;28;20024;-64
2023/01/17 09:42:56;;;;;;;15.83;10.47;;;;;;;-0.07;100.00;98649.59;5045925;28;20538;-64
2023/01/17 09:45:24;;;;;;;13.00;9.87;;;;;;;-0.04;100.00;98649.75;5046188;28;20021;-64
2023/01/17 09:47:52;;;;;;;13.77;10.77;;;;;;;0.06;100.00;98642.44;5047133;28;20426;-64
2023/01/17 09:50:42;;;;;;;13.63;10.07;;;;;;;0.15;100.00;98645.38;5046637;28;20396;-64
2023/01/17 09:53:19;;;;;;;16.23;9.60;;;;;;;0.24;100.00;98649.94;5045691;28;20081;-64
2023/01/17 09:55:56;;;;;;;16.57;10.00;;;;;;;0.31;100.00;98662.09;5046566;28;20056;-64
2023/01/17 09:58:49;;;;;;;14.67;8.60;;;;;;;0.38;100.00;98660.66;5046656;28;20068;-64
2023/01/17 10:01:35;;;;;;;12.63;8.33;;;;;;;0.48;100.00;98664.44;5046140;28;20037;-64
2023/01/17 10:04:38;;;;;;;12.00;8.43;;;;;;;0.56;100.00;98673.22;5046709;28;20356;-64
2023/01/17 10:07:31;;;;;;;11.77;7.50;;;;;;;0.60;100.00;98669.13;5045804;28;20044;-64
2023/01/17 10:10:33;;;;;;;10.10;8.17;;;;;;;0.66;100.00;98661.72;5045836;28;20040;-64
2023/01/17 10:13:17;;;;;;;14.37;8.87;;;;;;;0.77;100.00;98667.22;5047030;28;20539;-64
2023/01/17 10:16:03;;;;;;;13.83;8.37;;;;;;;0.84;100.00;98663.19;5046425;28;20393;-64
2023/01/17 10:18:31;;;;;;;10.43;7.63;;;;;;;0.90;100.00;98675.31;5046307;28;20464;-64
2023/01/17 10:21:03;;;;;;;10.87;7.60;;;;;;;0.91;100.00;98665.16;5054604;28;20150;-64
2023/01/17 10:24:07;;;;;;;14.00;8.73;;;;;;;0.95;100.00;98666.97;5050428;28;20350;-64
2023/01/17 10:26:35;;;;;;;11.37;8.03;;;;;;;0.99;100.00;98669.66;5046239;28;20079;-64
2023/01/17 10:29:04;;;;;;;9.90;8.53;;;;;;;1.05;100.00;98663.09;5044992;28;20240;-64
2023/01/17 10:31:38;;;;;;;12.70;7.50;;;;;;;1.16;100.00;98667.69;5046370;28;20484;-64
2023/01/17 10:34:12;;;;;;;8.50;6.03;;;;;;;1.16;100.00;98671.13;5046331;28;20384;-65
2023/01/17 10:36:44;;;;;;;10.40;6.83;;;;;;;1.22;100.00;98669.59;5045672;28;20485;-64
2023/01/17 10:39:18;;;;;;;10.87;6.43;;;;;;;1.28;100.00;98664.69;5045569;28;20024;-64
2023/01/17 10:41:49;;;;;;;7.03;6.33;;;;;;;1.30;100.00;98666.50;5046094;28;20025;-64
2023/01/17 10:44:27;;;;;;;7.67;6.70;;;;;;;1.35;100.00;98666.66;5045788;28;20515;-64
2023/01/17 10:47:11;;;;;;;9.60;6.63;;;;;;;1.41;100.00;98666.00;5045857;28;20021;-64
2023/01/17 10:49:45;;;;;;;8.77;6.60;;;;;;;1.46;100.00;98678.94;5046169;28;20021;-65
2023/01/17 10:52:49;;;;;;;9.27;7.27;;;;;;;1.48;100.00;98678.16;5046457;28;20053;-64
2023/01/17 10:55:31;;;;;;;10.10;7.07;;;;;;;1.51;100.00;98682.50;5045471;28;20025;-65
2023/01/17 10:58:00;;;;;;;9.43;5.93;;;;;;;1.54;100.00;98677.50;5045530;28;20025;-64
2023/01/17 11:00:51;;;;;;;9.60;6.73;;;;;;;1.55;100.00;98672.44;5046824;28;20523;-64
2023/01/17 11:03:20;;;;;;;8.48;6.22;;;;;;;1.60;100.00;98672.59;5046583;28;20163;-64
2023/01/17 11:06:18;;;;;;;8.17;6.30;;;;;;;1.68;100.00;98671.16;5045944;28;20021;-64
2023/01/17 11:08:50;;;;;;;8.80;6.30;;;;;;;1.76;100.00;98668.84;5046219;28;20465;-64
2023/01/17 11:11:16;;;;;;;7.87;6.27;;;;;;;1.77;100.00;98668.06;5045620;28;20021;-64
2023/01/17 11:13:46;;;;;;;11.20;6.93;;;;;;;1.80;100.00;98672.38;5044699;28;20025;-64
2023/01/17 11:16:20;;;;;;;7.40;6.03;;;;;;;1.82;100.00;98669.91;5045515;28;20055;-64
2023/01/17 11:18:47;;;;;;;8.67;6.20;;;;;;;1.86;100.00;98664.91;5045828;28;20025;-64
2023/01/17 11:21:22;;;;;;;9.77;6.37;;;;;;;1.84;100.00;98666.56;5056347;28;20020;-64
2023/01/17 11:23:50;;;;;;;8.37;6.37;;;;;;;1.94;100.00;98661.75;5049473;28;20027;-63
2023/01/17 11:26:23;;;;;;;8.77;6.13;;;;;;;2.02;100.00;98663.72;5050087;28;20354;-64
2023/01/17 11:28:50;;;;;;;12.37;7.80;;;;;;;2.08;100.00;98657.06;5049703;28;20021;-64
2023/01/17 11:31:15;;;;;;;8.03;5.90;;;;;;;2.18;100.00;98653.13;5048459;28;20098;-64
2023/01/17 11:33:47;;;;;;;6.50;4.33;;;;;;;2.25;100.00;98652.47;5049824;28;20025;-64
2023/01/17 11:36:29;;;;;;;9.30;4.93;;;;;;;2.35;100.00;98654.50;5049765;28;20033;-64
2023/01/17 11:38:55;;;;;;;;;;;;;;;2.45;100.00;98652.19;5058140;28;20020;-64
2023/01/17 11:41:22;;;;;;;6.53;4.27;;;;;;;2.56;100.00;98645.72;5051354;28;19913;-65
2023/01/17 11:43:49;;;;;;;7.00;4.23;;;;;;;2.67;100.00;98648.59;5047499;28;20032;-65
2023/01/17 11:46:17;;;;;;;5.00;3.90;;;;;;;2.72;100.00;98649.59;5049286;28;20064;-65
2023/01/17 11:48:47;;;;;;;5.57;3.63;;;;;;;2.84;100.00;98643.94;5048956;28;20035;-65
2023/01/17 11:51:34;;;;;;;5.03;2.97;;;;;;;2.94;100.00;98641.66;5047841;28;20064;-65
2023/01/17 11:54:24;;;;;;;7.00;3.37;;;;;;;3.02;100.00;98637.63;5049780;28;20029;-64
2023/01/17 11:56:56;;;;;;;4.97;3.23;;;;;;;3.17;100.00;98638.84;5048909;28;20389;-65
2023/01/17 11:59:33;;;;;;;4.50;3.97;;;;;;;3.29;100.00;98646.84;5047948;28;20036;-65
2023/01/17 12:02:34;;;;;;;6.27;3.53;;;;;;;3.38;100.00;98646.25;5049586;28;20079;-65
2023/01/17 12:05:16;;;;;;;3.17;2.57;;;;;;;3.60;100.00;98639.97;5048912;28;20029;-66
2023/01/17 12:08:19;;;;;;;3.70;3.17;;;;;;;3.78;100.00;98631.00;5047890;28;20041;-65
2023/01/17 12:10:44;;;;;;;4.53;3.40;;;;;;;3.97;100.00;98632.28;5048523;28;20032;-65
2023/01/17 12:16:26;;;;;;;5.20;3.40;;;;;;;4.44;100.00;98628.19;5048340;28;20270;-65
2023/01/17 12:19:03;;;;;;;5.47;3.77;;;;;;;4.66;100.00;98632.91;5048107;28;20519;-64
2023/01/17 12:21:50;;;;;;;4.43;3.65;;;;;;;4.88;100.00;98634.22;5048026;28;20041;-65
2023/01/17 12:24:28;;;;;;;3.95;3.17;;;;;;;5.08;100.00;98635.44;5048681;28;20029;-65
2023/01/17 12:26:57;;;;;;;3.00;2.60;;;;;;;5.16;95.58;98633.88;5047209;28;20464;-66
2023/01/17 12:30:24;;;;;;;4.07;2.50;;;;;;;5.18;93.66;98631.34;5048422;28;20095;-64
2023/01/17 12:33:07;;;;;;;6.18;2.58;;;;;;;5.23;91.48;98629.72;5002714;28;20029;-64
2023/01/17 12:35:49;;;;;;;3.83;2.53;;;;;;;5.29;94.84;98634.97;5047449;28;20476;-64
2023/01/17 12:38:22;;;;;;;2.90;2.50;;;;;;;5.35;95.74;98629.06;5049917;28;20021;-65
2023/01/17 12:40:55;;;;;;;2.63;2.30;;;;;;;5.26;84.02;98627.19;5048433;28;20021;-65
2023/01/17 12:43:36;;;;;;;3.70;1.90;;;;;;;5.22;87.05;98633.97;5048119;28;20481;-65
2023/01/17 12:46:10;;;;;;;5.13;2.47;;;;;;;5.19;91.50;98628.81;5047298;28;20433;-65
2023/01/17 12:48:38;;;;;;;3.97;2.38;;;;;;;5.09;87.31;98619.22;5047567;28;20048;-65
2023/01/17 12:51:10;;;;;;;3.15;2.20;;;;;;;5.04;88.60;98624.22;5047813;28;20166;-65
2023/01/17 12:53:41;;;;;;;;;;;;;;;4.97;87.84;98625.81;5047076;28;20025;-65
2023/01/17 12:56:06;;;;;;;3.92;2.70;;;;;;;4.92;89.23;98624.88;5047882;28;19952;-65
2023/01/17 12:58:46;;;;;;;3.28;2.10;;;;;;;4.76;84.31;98624.56;5048331;28;20060;-65
2023/01/17 13:01:24;;;;;;;4.45;1.83;;;;;;;4.71;nan;98626.19;5047200;28;20567;-65
2023/01/17 13:03:52;;;;;;;6.00;2.53;;;;;;;4.63;87.77;98627.72;5046612;28;20031;-65